M. Luther — WDC7372 — position and weather

sailwx.info

Track history (hours):
 
Tides and Currents Weather Stations Pressure Air Temp Water Temp Dewpoint Dewpoint Depression Visibility Wind Speed Wind Dir Waves Ship Positions

M. Luther

Owner: Salmon Bay Barge Line, Inc., Seattle, WA. More information available from US FCC via Universal Licensing System and Coast Guard Vessel Documentation Center.

Last reported at 2016-Aug-30 12:33 UTC. Time now 2016-Aug-30 13:14 UTC.
Position N 47°33' W 122°21'.

Length 28 m; draft 4.1 m.

Type: Tug. MMSI: 367070410.

Date/timePositionNaut miles runAvg speedWind from/ knotsBaromVisibWave heightAir tempDewpointWater temp
2016-Aug-30 12:33N 47°33' W 122°21'0 0.0
2016-Aug-30 11:32N 47°33' W 122°21'0 0.0
2016-Aug-30 10:32N 47°33' W 122°21'0 0.0
2016-Aug-30 09:32N 47°33' W 122°21'0 0.0
2016-Aug-30 08:32N 47°33' W 122°21'0 0.0
2016-Aug-30 07:29N 47°33' W 122°21'0 0.0
2016-Aug-30 06:32N 47°33' W 122°21'0 0.0
2016-Aug-30 05:32N 47°33' W 122°21'0 0.0
2016-Aug-30 04:29N 47°33' W 122°21'0 0.0
2016-Aug-30 03:32N 47°33' W 122°21'0 0.0
2016-Aug-30 02:32N 47°33' W 122°21'0 0.0
2016-Aug-30 01:32N 47°33' W 122°21'0 0.0
2016-Aug-30 00:31N 47°33' W 122°21'0 0.0
2016-Aug-29 23:31N 47°33' W 122°21'0 0.0
2016-Aug-29 22:16N 47°33' W 122°21'0 0.0
2016-Aug-29 21:04N 47°33' W 122°21'0 0.0
2016-Aug-29 19:10N 47°33' W 122°21'0 0.0
2016-Aug-29 18:28N 47°33' W 122°21'0 0.0
2016-Aug-29 17:19N 47°33' W 122°21'0 0.0
2016-Aug-29 16:31N 47°33' W 122°21'0 0.0
2016-Aug-29 15:07N 47°33' W 122°21'0 0.0
2016-Aug-29 14:10N 47°33' W 122°21'0 0.0
2016-Aug-29 13:31N 47°33' W 122°21'0 0.0
2016-Aug-29 12:19N 47°33' W 122°21'0 0.0
2016-Aug-29 11:31N 47°33' W 122°21'0 0.0
2016-Aug-29 10:31N 47°33' W 122°21'0 0.0
2016-Aug-29 09:31N 47°33' W 122°21'0 0.0
2016-Aug-29 08:31N 47°33' W 122°21'0 0.0
2016-Aug-29 07:31N 47°33' W 122°21'0 0.0
2016-Aug-29 02:22N 47°33' W 122°21'0 0.0
2016-Aug-28 18:15N 47°33' W 122°21'0 0.0
2016-Aug-28 16:24N 47°33' W 122°21'0 0.0
2016-Aug-28 15:24N 47°33' W 122°21'0 0.0
2016-Aug-28 08:24N 47°33' W 122°21'0 0.0
2016-Aug-28 07:30N 47°33' W 122°21'0 0.0
2016-Aug-28 06:30N 47°33' W 122°21'0 0.0
2016-Aug-27 22:33N 47°33' W 122°21'4 3.6
2016-Aug-27 21:34N 47°36' W 122°24'6 5.6
2016-Aug-27 20:34N 47°41' W 122°28'7 6.5
2016-Aug-27 19:34N 47°47' W 122°28'7 7.0
2016-Aug-27 18:34N 47°54' W 122°30'8 8.0
2016-Aug-27 17:33N 48°00' W 122°38'9 8.0
2016-Aug-27 16:27N 48°09' W 122°41'8 7.7
2016-Aug-27 15:28N 48°14' W 122°49'8 8.3
2016-Aug-27 14:33N 48°22' W 122°46'9 9.1
2016-Aug-27 13:34N 48°31' W 122°45'10 9.8
2016-Aug-27 12:34N 48°41' W 122°44'8 8.2
2016-Aug-27 11:33N 48°47' W 122°52'8 8.3
2016-Aug-27 10:33N 48°51' W 123°02'8 8.2
2016-Aug-27 09:33N 48°57' W 123°12'8 7.6
2016-Aug-27 08:33N 49°02' W 123°20'5 5.5
2016-Aug-27 07:33N 49°07' W 123°17'5 4.8
2016-Aug-27 06:33N 49°07' W 123°09'7 3.3
2016-Aug-27 04:33N 49°09' W 123°00'0 0.0
2016-Aug-27 03:32N 49°09' W 123°00'0 0.0
2016-Aug-27 02:32N 49°09' W 123°00'0 0.0
2016-Aug-27 01:32N 49°09' W 123°00'0 0.0
2016-Aug-27 00:32N 49°09' W 123°00'0 0.0
2016-Aug-26 23:32N 49°09' W 123°00'0 0.0
2016-Aug-26 22:31N 49°09' W 123°00'0 0.0
2016-Aug-26 21:31N 49°09' W 123°00'0 0.0
2016-Aug-26 20:31N 49°09' W 123°00'0 0.0
2016-Aug-26 19:31N 49°09' W 123°00'0 0.0
2016-Aug-26 18:31N 49°09' W 123°00'0 0.0
2016-Aug-26 17:31N 49°09' W 123°00'0 0.0
2016-Aug-26 16:31N 49°09' W 123°00'0 0.0
2016-Aug-26 15:31N 49°09' W 123°00'0 0.0
2016-Aug-26 14:31N 49°09' W 123°00'0 0.0
2016-Aug-26 13:28N 49°09' W 123°00'0 0.0
2016-Aug-26 12:31N 49°09' W 123°00'0 0.0
2016-Aug-26 11:31N 49°09' W 123°00'0 0.0
2016-Aug-26 10:31N 49°09' W 123°00'0 0.0
2016-Aug-26 09:31N 49°09' W 123°00'0 0.0
2016-Aug-26 08:31N 49°09' W 123°00'0 0.0
2016-Aug-26 07:31N 49°09' W 123°00'0 0.0
2016-Aug-26 06:31N 49°09' W 123°00'0 0.0
2016-Aug-26 04:31N 49°09' W 123°00'0 0.0
2016-Aug-26 03:31N 49°09' W 123°00'0 0.0
2016-Aug-26 02:31N 49°09' W 123°00'0 0.0
2016-Aug-26 01:31N 49°09' W 123°00'0 0.0
2016-Aug-26 00:31N 49°09' W 123°00'0 0.0
2016-Aug-25 23:31N 49°09' W 123°00'0 0.0
2016-Aug-25 22:31N 49°09' W 123°00'0 0.0
2016-Aug-25 21:31N 49°09' W 123°00'0 0.0
2016-Aug-25 20:31N 49°09' W 123°00'0 0.0
2016-Aug-25 19:31N 49°09' W 123°00'0 0.0
2016-Aug-25 18:31N 49°09' W 123°00'0 0.0
2016-Aug-25 17:31N 49°09' W 123°00'0 0.0
2016-Aug-25 16:31N 49°09' W 123°00'0 0.0
2016-Aug-25 15:31N 49°09' W 123°00'0 0.0
2016-Aug-25 14:31N 49°09' W 123°00'0 0.0
2016-Aug-25 13:31N 49°09' W 123°00'0 0.0
2016-Aug-25 12:34N 49°09' W 123°00'0 0.0
2016-Aug-25 11:33N 49°09' W 123°00'0 0.0
2016-Aug-25 10:33N 49°09' W 123°00'0 0.0
2016-Aug-25 09:33N 49°09' W 123°00'0 0.0
2016-Aug-25 08:33N 49°09' W 123°00'0 0.0
2016-Aug-25 07:33N 49°09' W 123°00'0 0.0
2016-Aug-25 06:33N 49°09' W 123°00'0 0.0
2016-Aug-25 04:33N 49°09' W 123°00'0 0.0
2016-Aug-25 03:33N 49°09' W 123°00'0 0.0
2016-Aug-25 02:33N 49°09' W 123°00'0 0.0
2016-Aug-25 01:33N 49°09' W 123°00'0 0.0
2016-Aug-25 00:33N 49°09' W 123°00'0 0.0
2016-Aug-24 23:33N 49°09' W 123°00'0 0.0
2016-Aug-24 22:33N 49°09' W 123°00'0 0.0
2016-Aug-24 21:30N 49°09' W 123°00'0 0.0
2016-Aug-24 20:33N 49°09' W 123°00'0 0.0
2016-Aug-24 19:33N 49°09' W 123°00'0 0.0
2016-Aug-24 18:33N 49°09' W 123°00'0 0.0
2016-Aug-24 17:33N 49°09' W 123°00'0 0.0
2016-Aug-24 16:33N 49°09' W 123°00'0 0.0
2016-Aug-24 15:33N 49°09' W 123°00'0 0.0
2016-Aug-24 14:33N 49°09' W 123°00'1 1.0
2016-Aug-24 13:33N 49°09' W 123°02'5 5.4
2016-Aug-24 12:33N 49°07' W 123°09'4 4.4
2016-Aug-24 11:34N 49°07' W 123°16'4 3.9
2016-Aug-24 10:34N 49°04' W 123°19'5 5.1
2016-Aug-24 09:33N 49°01' W 123°14'6 6.2
2016-Aug-24 08:33N 48°57' W 123°07'6 5.9
2016-Aug-24 07:33N 48°53' W 122°60'7 6.5
2016-Aug-24 06:32N 48°48' W 122°52'11 5.5
2016-Aug-24 04:33N 48°40' W 122°43'8 7.7
2016-Aug-24 03:33N 48°32' W 122°44'10 9.2
2016-Aug-24 02:31N 48°22' W 122°44'8 8.0
2016-Aug-24 01:32N 48°15' W 122°48'6 5.7
2016-Aug-24 00:31N 48°10' W 122°43'7 6.8
2016-Aug-23 23:33N 48°04' W 122°38'8 7.9
2016-Aug-23 22:33N 47°57' W 122°32'8 8.2
2016-Aug-23 21:34N 47°50' W 122°27'9 8.7
2016-Aug-23 20:34N 47°41' W 122°27'7 6.8
2016-Aug-23 19:34N 47°35' W 122°22'2 2.1
2016-Aug-23 18:32N 47°33' W 122°21'0 0.0
2016-Aug-23 17:32N 47°33' W 122°21'  
Track history (hours):
 
Tides and Currents Weather Stations Pressure Air Temp Water Temp Dewpoint Dewpoint Depression Visibility Wind Speed Wind Dir Waves Ship Positions

M. Luther

Owner: Salmon Bay Barge Line, Inc., Seattle, WA. More information available from US FCC via Universal Licensing System and Coast Guard Vessel Documentation Center.

Last reported at 2016-Aug-30 12:33 UTC. Time now 2016-Aug-30 13:14 UTC.
Position N 47°33' W 122°21'.

Length 28 m; draft 4.1 m.

Type: Tug. MMSI: 367070410.

Date/timePositionNaut miles runAvg speedWind from/ knotsBaromVisibWave heightAir tempDewpointWater temp
2016-Aug-30 12:33N 47°33' W 122°21'0 0.0
2016-Aug-30 11:32N 47°33' W 122°21'0 0.0
2016-Aug-30 10:32N 47°33' W 122°21'0 0.0
2016-Aug-30 09:32N 47°33' W 122°21'0 0.0
2016-Aug-30 08:32N 47°33' W 122°21'0 0.0
2016-Aug-30 07:29N 47°33' W 122°21'0 0.0
2016-Aug-30 06:32N 47°33' W 122°21'0 0.0
2016-Aug-30 05:32N 47°33' W 122°21'0 0.0
2016-Aug-30 04:29N 47°33' W 122°21'0 0.0
2016-Aug-30 03:32N 47°33' W 122°21'0 0.0
2016-Aug-30 02:32N 47°33' W 122°21'0 0.0
2016-Aug-30 01:32N 47°33' W 122°21'0 0.0
2016-Aug-30 00:31N 47°33' W 122°21'0 0.0
2016-Aug-29 23:31N 47°33' W 122°21'0 0.0
2016-Aug-29 22:16N 47°33' W 122°21'0 0.0
2016-Aug-29 21:04N 47°33' W 122°21'0 0.0
2016-Aug-29 19:10N 47°33' W 122°21'0 0.0
2016-Aug-29 18:28N 47°33' W 122°21'0 0.0
2016-Aug-29 17:19N 47°33' W 122°21'0 0.0
2016-Aug-29 16:31N 47°33' W 122°21'0 0.0
2016-Aug-29 15:07N 47°33' W 122°21'0 0.0
2016-Aug-29 14:10N 47°33' W 122°21'0 0.0
2016-Aug-29 13:31N 47°33' W 122°21'0 0.0
2016-Aug-29 12:19N 47°33' W 122°21'0 0.0
2016-Aug-29 11:31N 47°33' W 122°21'0 0.0
2016-Aug-29 10:31N 47°33' W 122°21'0 0.0
2016-Aug-29 09:31N 47°33' W 122°21'0 0.0
2016-Aug-29 08:31N 47°33' W 122°21'0 0.0
2016-Aug-29 07:31N 47°33' W 122°21'0 0.0
2016-Aug-29 02:22N 47°33' W 122°21'0 0.0
2016-Aug-28 18:15N 47°33' W 122°21'0 0.0
2016-Aug-28 16:24N 47°33' W 122°21'0 0.0
2016-Aug-28 15:24N 47°33' W 122°21'0 0.0
2016-Aug-28 08:24N 47°33' W 122°21'0 0.0
2016-Aug-28 07:30N 47°33' W 122°21'0 0.0
2016-Aug-28 06:30N 47°33' W 122°21'0 0.0
2016-Aug-27 22:33N 47°33' W 122°21'4 3.6
2016-Aug-27 21:34N 47°36' W 122°24'6 5.6
2016-Aug-27 20:34N 47°41' W 122°28'7 6.5
2016-Aug-27 19:34N 47°47' W 122°28'7 7.0
2016-Aug-27 18:34N 47°54' W 122°30'8 8.0
2016-Aug-27 17:33N 48°00' W 122°38'9 8.0
2016-Aug-27 16:27N 48°09' W 122°41'8 7.7
2016-Aug-27 15:28N 48°14' W 122°49'8 8.3
2016-Aug-27 14:33N 48°22' W 122°46'9 9.1
2016-Aug-27 13:34N 48°31' W 122°45'10 9.8
2016-Aug-27 12:34N 48°41' W 122°44'8 8.2
2016-Aug-27 11:33N 48°47' W 122°52'8 8.3
2016-Aug-27 10:33N 48°51' W 123°02'8 8.2
2016-Aug-27 09:33N 48°57' W 123°12'8 7.6
2016-Aug-27 08:33N 49°02' W 123°20'5 5.5
2016-Aug-27 07:33N 49°07' W 123°17'5 4.8
2016-Aug-27 06:33N 49°07' W 123°09'7 3.3
2016-Aug-27 04:33N 49°09' W 123°00'0 0.0
2016-Aug-27 03:32N 49°09' W 123°00'0 0.0
2016-Aug-27 02:32N 49°09' W 123°00'0 0.0
2016-Aug-27 01:32N 49°09' W 123°00'0 0.0
2016-Aug-27 00:32N 49°09' W 123°00'0 0.0
2016-Aug-26 23:32N 49°09' W 123°00'0 0.0
2016-Aug-26 22:31N 49°09' W 123°00'0 0.0
2016-Aug-26 21:31N 49°09' W 123°00'0 0.0
2016-Aug-26 20:31N 49°09' W 123°00'0 0.0
2016-Aug-26 19:31N 49°09' W 123°00'0 0.0
2016-Aug-26 18:31N 49°09' W 123°00'0 0.0
2016-Aug-26 17:31N 49°09' W 123°00'0 0.0
2016-Aug-26 16:31N 49°09' W 123°00'0 0.0
2016-Aug-26 15:31N 49°09' W 123°00'0 0.0
2016-Aug-26 14:31N 49°09' W 123°00'0 0.0
2016-Aug-26 13:28N 49°09' W 123°00'0 0.0
2016-Aug-26 12:31N 49°09' W 123°00'0 0.0
2016-Aug-26 11:31N 49°09' W 123°00'0 0.0
2016-Aug-26 10:31N 49°09' W 123°00'0 0.0
2016-Aug-26 09:31N 49°09' W 123°00'0 0.0
2016-Aug-26 08:31N 49°09' W 123°00'0 0.0
2016-Aug-26 07:31N 49°09' W 123°00'0 0.0
2016-Aug-26 06:31N 49°09' W 123°00'0 0.0
2016-Aug-26 04:31N 49°09' W 123°00'0 0.0
2016-Aug-26 03:31N 49°09' W 123°00'0 0.0
2016-Aug-26 02:31N 49°09' W 123°00'0 0.0
2016-Aug-26 01:31N 49°09' W 123°00'0 0.0
2016-Aug-26 00:31N 49°09' W 123°00'0 0.0
2016-Aug-25 23:31N 49°09' W 123°00'0 0.0
2016-Aug-25 22:31N 49°09' W 123°00'0 0.0
2016-Aug-25 21:31N 49°09' W 123°00'0 0.0
2016-Aug-25 20:31N 49°09' W 123°00'0 0.0
2016-Aug-25 19:31N 49°09' W 123°00'0 0.0
2016-Aug-25 18:31N 49°09' W 123°00'0 0.0
2016-Aug-25 17:31N 49°09' W 123°00'0 0.0
2016-Aug-25 16:31N 49°09' W 123°00'0 0.0
2016-Aug-25 15:31N 49°09' W 123°00'0 0.0
2016-Aug-25 14:31N 49°09' W 123°00'0 0.0
2016-Aug-25 13:31N 49°09' W 123°00'0 0.0
2016-Aug-25 12:34N 49°09' W 123°00'0 0.0
2016-Aug-25 11:33N 49°09' W 123°00'0 0.0
2016-Aug-25 10:33N 49°09' W 123°00'0 0.0
2016-Aug-25 09:33N 49°09' W 123°00'0 0.0
2016-Aug-25 08:33N 49°09' W 123°00'0 0.0
2016-Aug-25 07:33N 49°09' W 123°00'0 0.0
2016-Aug-25 06:33N 49°09' W 123°00'0 0.0
2016-Aug-25 04:33N 49°09' W 123°00'0 0.0
2016-Aug-25 03:33N 49°09' W 123°00'0 0.0
2016-Aug-25 02:33N 49°09' W 123°00'0 0.0
2016-Aug-25 01:33N 49°09' W 123°00'0 0.0
2016-Aug-25 00:33N 49°09' W 123°00'0 0.0
2016-Aug-24 23:33N 49°09' W 123°00'0 0.0
2016-Aug-24 22:33N 49°09' W 123°00'0 0.0
2016-Aug-24 21:30N 49°09' W 123°00'0 0.0
2016-Aug-24 20:33N 49°09' W 123°00'0 0.0
2016-Aug-24 19:33N 49°09' W 123°00'0 0.0
2016-Aug-24 18:33N 49°09' W 123°00'0 0.0
2016-Aug-24 17:33N 49°09' W 123°00'0 0.0
2016-Aug-24 16:33N 49°09' W 123°00'0 0.0
2016-Aug-24 15:33N 49°09' W 123°00'0 0.0
2016-Aug-24 14:33N 49°09' W 123°00'1 1.0
2016-Aug-24 13:33N 49°09' W 123°02'5 5.4
2016-Aug-24 12:33N 49°07' W 123°09'4 4.4
2016-Aug-24 11:34N 49°07' W 123°16'4 3.9
2016-Aug-24 10:34N 49°04' W 123°19'5 5.1
2016-Aug-24 09:33N 49°01' W 123°14'6 6.2
2016-Aug-24 08:33N 48°57' W 123°07'6 5.9
2016-Aug-24 07:33N 48°53' W 122°60'7 6.5
2016-Aug-24 06:32N 48°48' W 122°52'11 5.5
2016-Aug-24 04:33N 48°40' W 122°43'8 7.7
2016-Aug-24 03:33N 48°32' W 122°44'10 9.2
2016-Aug-24 02:31N 48°22' W 122°44'8 8.0
2016-Aug-24 01:32N 48°15' W 122°48'6 5.7
2016-Aug-24 00:31N 48°10' W 122°43'7 6.8
2016-Aug-23 23:33N 48°04' W 122°38'8 7.9
2016-Aug-23 22:33N 47°57' W 122°32'8 8.2
2016-Aug-23 21:34N 47°50' W 122°27'9 8.7
2016-Aug-23 20:34N 47°41' W 122°27'7 6.8
2016-Aug-23 19:34N 47°35' W 122°22'2 2.1
2016-Aug-23 18:32N 47°33' W 122°21'0 0.0
2016-Aug-23 17:32N 47°33' W 122°21'  

Dump ship's entire track history